Time;durP1;ratioP1;P1;durP2;ratioP2;P2;SDS_P1;SDS_P2;PMS_P1;PMS_P2;Temp;Humidity;BMP_temperature;BMP_pressure;BME280_temperature;BME280_humidity;BME280_pressure;Samples;Min_cycle;Max_cycle;Signal;HPM_P1;HPM_P2
2022/08/28 00:00:39;;;;;;;11.32;10.18;;;13.60;99.90;;;;;;4992030;28;20839;-89
2022/08/28 00:03:08;;;;;;;11.50;10.40;;;13.70;99.90;;;;;;4996719;28;20932;-83
2022/08/28 00:05:38;;;;;;;10.60;9.50;;;13.80;99.90;;;;;;4979776;28;20413;-88
2022/08/28 00:08:06;;;;;;;10.43;9.43;;;13.80;99.90;;;;;;4997000;28;20454;-87
2022/08/28 00:10:33;;;;;;;9.95;8.93;;;14.00;99.90;;;;;;4997540;28;20381;-83
2022/08/28 00:13:00;;;;;;;9.82;7.97;;;14.20;99.90;;;;;;4979558;28;20769;-82
2022/08/28 00:15:32;;;;;;;8.98;8.07;;;14.40;99.90;;;;;;4977115;28;20476;-87
2022/08/28 00:18:00;;;;;;;8.20;7.40;;;14.50;99.90;;;;;;5001381;28;20392;-81
2022/08/28 00:20:29;;;;;;;7.77;6.97;;;16.20;99.90;;;;;;4999397;28;20438;-85
2022/08/28 00:23:00;;;;;;;7.60;6.75;;;14.70;99.90;;;;;;4977060;28;20443;-78
2022/08/28 00:25:29;;;;;;;8.60;7.27;;;14.70;99.90;;;;;;4997155;28;20474;-88
2022/08/28 00:28:00;;;;;;;6.43;5.82;;;14.80;99.90;;;;;;4996659;28;20400;-84
2022/08/28 00:30:29;;;;;;;5.50;4.32;;;15.00;99.90;;;;;;4988679;28;20397;-82
2022/08/28 00:32:59;;;;;;;5.70;4.80;;;15.10;99.90;;;;;;4997541;28;20373;-82
2022/08/28 00:35:26;;;;;;;7.22;5.10;;;15.20;99.90;;;;;;4979018;28;20756;-91
2022/08/28 00:37:56;;;;;;;6.55;5.80;;;15.30;99.90;;;;;;4995463;28;20405;-83
2022/08/28 00:40:26;;;;;;;7.82;6.95;;;15.50;99.90;;;;;;4975694;28;20418;-86
2022/08/28 00:42:54;;;;;;;10.13;7.70;;;15.60;99.90;;;;;;4991692;28;20557;-86
2022/08/28 00:45:22;;;;;;;9.20;7.45;;;15.80;99.90;;;;;;4993486;28;20428;-84
2022/08/28 00:47:50;;;;;;;8.80;7.40;;;15.90;99.90;;;;;;4995029;28;20865;-85
2022/08/28 00:50:20;;;;;;;8.85;6.95;;;16.00;99.90;;;;;;4986491;28;20815;-84
2022/08/28 00:52:52;;;;;;;8.30;7.40;;;16.10;99.90;;;;;;4993735;28;20373;-85
2022/08/28 00:55:22;;;;;;;8.10;6.85;;;16.10;99.90;;;;;;4978889;28;20383;-85
2022/08/28 00:57:59;;;;;;;8.13;6.97;;;16.40;99.90;;;;;;4991740;28;20392;-84
2022/08/28 01:00:35;;;;;;;8.37;6.20;;;16.50;99.90;;;;;;4986359;28;20497;-84
2022/08/28 01:03:03;;;;;;;6.25;5.00;;;16.60;99.90;;;;;;4985796;28;20727;-84
2022/08/28 01:05:31;;;;;;;6.97;3.45;;;16.80;99.90;;;;;;4994209;28;20408;-85
2022/08/28 01:08:00;;;;;;;6.57;4.30;;;17.00;99.90;;;;;;4990668;28;20381;-82
2022/08/28 01:10:28;;;;;;;5.35;3.70;;;17.20;99.90;;;;;;4973459;28;20389;-86
2022/08/28 01:12:56;;;;;;;4.45;3.45;;;17.30;99.90;;;;;;4984181;28;20397;-86
2022/08/28 01:15:28;;;;;;;3.70;3.05;;;17.40;99.90;;;;;;4976858;28;20795;-84
2022/08/28 01:18:00;;;;;;;4.18;2.75;;;17.40;99.90;;;;;;4993053;28;20389;-84
2022/08/28 01:20:32;;;;;;;3.67;2.30;;;17.50;99.90;;;;;;4992481;28;20526;-83
2022/08/28 01:23:36;;;;;;;4.50;2.50;;;17.80;99.90;;;;;;4992901;28;20385;-83
2022/08/28 01:26:03;;;;;;;4.32;2.70;;;17.90;99.90;;;;;;4992429;28;20751;-78
2022/08/28 01:28:31;;;;;;;3.42;2.30;;;18.30;99.90;;;;;;4991922;28;20384;-78
2022/08/28 01:30:58;;;;;;;5.35;3.28;;;18.90;99.90;;;;;;4992299;28;20809;-81
2022/08/28 01:33:25;;;;;;;3.90;2.30;;;19.40;99.90;;;;;;4984168;28;20463;-80
2022/08/28 01:35:52;;;;;;;3.28;2.10;;;19.70;99.90;;;;;;4991747;28;20393;-79
2022/08/28 01:38:19;;;;;;;4.43;2.15;;;20.00;99.90;;;;;;4992499;28;20409;-77
2022/08/28 01:40:52;;;;;;;4.32;2.72;;;20.30;99.90;;;;;;4990965;28;20401;-80
2022/08/28 01:43:23;;;;;;;3.70;2.70;;;20.80;99.90;;;;;;4992880;28;20849;-79
2022/08/28 01:45:54;;;;;;;5.13;2.40;;;21.20;99.90;;;;;;4992474;28;20377;-80
2022/08/28 01:48:24;;;;;;;3.75;2.00;;;21.20;99.90;;;;;;4991735;28;20381;-80
2022/08/28 01:50:52;;;;;;;2.92;2.10;;;20.70;99.90;;;;;;4990963;28;20396;-80
2022/08/28 01:53:23;;;;;;;4.32;2.25;;;21.30;99.90;;;;;;4990108;28;20442;-80
2022/08/28 01:55:50;;;;;;;2.50;2.03;;;21.90;99.90;;;;;;4990010;28;20392;-80
2022/08/28 01:58:18;;;;;;;2.97;2.00;;;22.40;99.90;;;;;;4990147;28;20464;-80
2022/08/28 02:00:45;;;;;;;2.35;1.80;;;22.80;98.60;;;;;;4990015;28;20396;-80
2022/08/28 02:03:12;;;;;;;2.90;1.92;;;23.30;96.30;;;;;;4991384;28;20393;-80
2022/08/28 02:05:40;;;;;;;4.82;2.72;;;23.60;94.10;;;;;;4991167;28;20416;-81
2022/08/28 02:08:08;;;;;;;3.50;2.50;;;24.00;93.80;;;;;;4992221;28;20396;-80
2022/08/28 02:10:38;;;;;;;6.45;3.35;;;24.20;92.10;;;;;;4974723;28;20921;-79
2022/08/28 02:13:10;;;;;;;63.28;9.50;;;24.30;90.70;;;;;;4980672;28;20406;-79
2022/08/28 02:15:40;;;;;;;7.30;4.03;;;24.50;90.20;;;;;;4990135;28;20378;-79
2022/08/28 02:18:08;;;;;;;8.45;4.43;;;24.50;89.80;;;;;;4993259;28;20392;-79
2022/08/28 02:20:36;;;;;;;9.48;3.85;;;24.70;87.20;;;;;;4994972;28;20554;-80
2022/08/28 02:23:04;;;;;;;5.90;3.30;;;25.00;86.80;;;;;;4997144;28;20380;-79
2022/08/28 02:25:31;;;;;;;5.38;3.85;;;24.70;86.40;;;;;;4997865;28;20389;-80
2022/08/28 02:27:59;;;;;;;5.53;3.60;;;24.70;87.20;;;;;;4994134;28;20381;-79
2022/08/28 02:30:27;;;;;;;4.63;3.50;;;24.00;88.70;;;;;;4992644;28;20389;-80
2022/08/28 02:32:54;;;;;;;5.72;3.40;;;23.60;89.70;;;;;;4992637;28;20377;-79
2022/08/28 02:35:22;;;;;;;5.60;3.20;;;23.60;90.90;;;;;;4992323;28;20460;-82
2022/08/28 02:37:50;;;;;;;4.18;2.90;;;24.10;88.30;;;;;;4991852;28;20966;-79
2022/08/28 02:40:20;;;;;;;3.77;2.73;;;24.30;88.30;;;;;;4991562;28;20419;-80
2022/08/28 02:42:48;;;;;;;5.15;2.67;;;24.50;87.40;;;;;;4991925;28;20760;-79
2022/08/28 02:45:16;;;;;;;5.90;3.30;;;24.80;85.10;;;;;;4991943;28;20930;-80
2022/08/28 02:47:44;;;;;;;7.63;3.05;;;25.50;83.20;;;;;;4974178;28;20397;-80
2022/08/28 02:50:15;;;;;;;5.55;2.97;;;26.10;76.30;;;;;;4974067;28;20952;-79
2022/08/28 02:52:42;;;;;;;4.83;2.90;;;26.40;73.60;;;;;;4991395;28;20865;-80
2022/08/28 02:55:11;;;;;;;3.47;2.05;;;26.10;73.60;;;;;;4988170;28;20401;-81
2022/08/28 02:57:38;;;;;;;2.58;1.92;;;26.20;72.90;;;;;;4981810;28;20377;-80
2022/08/28 03:00:11;;;;;;;7.13;2.33;;;26.60;69.20;;;;;;4991200;28;20412;-80
2022/08/28 03:02:45;;;;;;;2.53;1.83;;;26.80;70.10;;;;;;4991444;28;20378;-80
2022/08/28 03:05:14;;;;;;;3.17;1.73;;;26.70;63.20;;;;;;4991449;28;20415;-79
2022/08/28 03:07:41;;;;;;;2.45;1.80;;;26.40;66.30;;;;;;4991391;28;20472;-80
2022/08/28 03:10:09;;;;;;;2.92;2.00;;;26.90;65.60;;;;;;4991369;28;20476;-80
2022/08/28 03:12:37;;;;;;;3.60;2.40;;;27.20;65.40;;;;;;4991091;28;20512;-80
2022/08/28 03:15:06;;;;;;;14.10;2.83;;;27.40;65.70;;;;;;4991319;28;20397;-80
2022/08/28 03:17:35;;;;;;;2.70;2.13;;;27.50;64.60;;;;;;4991076;28;20898;-82
2022/08/28 03:20:05;;;;;;;2.33;1.90;;;27.30;63.90;;;;;;4991311;28;20892;-87
2022/08/28 03:25:18;;;;;;;3.00;1.70;;;27.30;63.40;;;;;;4991760;28;20446;-81
2022/08/28 03:27:45;;;;;;;3.60;2.17;;;27.50;62.40;;;;;;4990933;28;20397;-81
2022/08/28 03:30:13;;;;;;;4.18;2.03;;;28.10;61.60;;;;;;4991049;28;20896;-81
2022/08/28 03:32:40;;;;;;;42.08;7.88;;;28.70;60.20;;;;;;4990894;28;20393;-82
2022/08/28 03:35:08;;;;;;;6.28;2.45;;;28.90;60.50;;;;;;4990932;28;20393;-81
2022/08/28 03:37:35;;;;;;;4.00;1.90;;;28.70;58.20;;;;;;4991221;28;20424;-81
2022/08/28 03:40:03;;;;;;;2.10;1.85;;;27.20;59.20;;;;;;4991108;28;20408;-80
2022/08/28 03:42:30;;;;;;;3.72;2.38;;;25.80;62.90;;;;;;4990854;28;20377;-80
2022/08/28 03:44:58;;;;;;;3.40;2.28;;;25.00;65.40;;;;;;4990616;28;20454;-80
2022/08/28 03:47:27;;;;;;;1.70;1.60;;;25.60;64.50;;;;;;4991183;28;20468;-80
2022/08/28 03:49:55;;;;;;;2.05;1.70;;;26.20;64.20;;;;;;4984891;28;20413;-80
2022/08/28 03:52:23;;;;;;;2.22;1.80;;;27.40;62.50;;;;;;4985753;28;20942;-80
2022/08/28 03:54:51;;;;;;;2.75;1.92;;;28.10;61.70;;;;;;4994112;28;20396;-80
2022/08/28 03:57:22;;;;;;;2.40;1.70;;;28.20;60.00;;;;;;4994615;28;20828;-84
2022/08/28 03:59:52;;;;;;;2.20;1.90;;;28.00;59.50;;;;;;4994508;28;20405;-86
2022/08/28 04:02:19;;;;;;;4.32;1.85;;;28.30;58.50;;;;;;4980091;28;20414;-80
2022/08/28 04:04:47;;;;;;;1.83;1.67;;;28.60;58.10;;;;;;4986332;28;20393;-82
2022/08/28 04:07:16;;;;;;;3.15;2.20;;;28.10;59.00;;;;;;4994591;28;20391;-81
2022/08/28 04:09:43;;;;;;;3.53;3.15;;;27.70;60.30;;;;;;4994176;28;20388;-81
2022/08/28 04:12:10;;;;;;;2.25;2.05;;;28.30;58.10;;;;;;4991030;28;20377;-80
2022/08/28 04:14:38;;;;;;;2.72;2.33;;;28.90;56.10;;;;;;4994299;28;20387;-81
2022/08/28 04:17:06;;;;;;;2.13;1.92;;;28.50;57.80;;;;;;4994021;28;20516;-81
2022/08/28 04:19:33;;;;;;;2.97;2.40;;;27.10;60.20;;;;;;4993744;28;20820;-81
2022/08/28 04:22:00;;;;;;;3.20;2.13;;;26.00;63.40;;;;;;4993984;28;20437;-81
2022/08/28 04:24:27;;;;;;;2.40;1.90;;;25.00;66.40;;;;;;4993273;28;21316;-81
2022/08/28 04:26:55;;;;;;;3.10;2.13;;;24.00;70.30;;;;;;4992807;28;20397;-81
2022/08/28 04:29:22;;;;;;;3.50;2.10;;;23.30;73.50;;;;;;4990566;28;20449;-81
2022/08/28 04:31:50;;;;;;;7.97;6.95;;;22.70;75.20;;;;;;4993753;28;20435;-82
2022/08/28 04:34:17;;;;;;;10.10;7.85;;;22.30;72.30;;;;;;4992902;28;20381;-81
2022/08/28 04:36:45;;;;;;;4.83;3.73;;;22.00;74.50;;;;;;4993925;28;20396;-82
2022/08/28 04:39:12;;;;;;;3.70;2.10;;;21.70;76.70;;;;;;4992903;28;20413;-79
2022/08/28 04:41:40;;;;;;;3.40;2.40;;;21.70;79.80;;;;;;4992436;28;20389;-78
2022/08/28 04:44:08;;;;;;;3.38;2.03;;;21.90;80.60;;;;;;4993201;28;20393;-80
2022/08/28 04:46:36;;;;;;;4.03;2.30;;;21.90;79.40;;;;;;4992017;28;20389;-81
2022/08/28 04:49:04;;;;;;;4.78;2.40;;;21.70;80.30;;;;;;4986654;28;20397;-77
2022/08/28 04:51:32;;;;;;;3.35;2.10;;;21.60;81.50;;;;;;4992875;28;20385;-81
2022/08/28 04:54:02;;;;;;;3.85;2.10;;;21.50;82.60;;;;;;4974327;28;20753;-80
2022/08/28 04:56:30;;;;;;;4.45;2.47;;;21.40;83.90;;;;;;4992495;28;20738;-80
2022/08/28 04:58:59;;;;;;;4.55;2.70;;;21.30;83.00;;;;;;4992302;28;20397;-80
2022/08/28 05:01:27;;;;;;;3.65;2.60;;;21.10;82.90;;;;;;4992062;28;20399;-80
2022/08/28 05:03:57;;;;;;;4.07;2.60;;;21.00;83.80;;;;;;4990950;28;20377;-80
2022/08/28 05:06:27;;;;;;;4.60;2.90;;;20.90;84.20;;;;;;4992310;28;20415;-80
2022/08/28 05:08:58;;;;;;;6.72;3.90;;;20.70;84.20;;;;;;4978704;28;20392;-80
2022/08/28 05:11:27;;;;;;;9.02;4.40;;;20.70;85.70;;;;;;4993354;28;20465;-80
2022/08/28 05:13:54;;;;;;;5.20;3.30;;;20.70;86.00;;;;;;4993420;28;20392;-80
2022/08/28 05:16:22;;;;;;;4.28;2.30;;;21.00;85.70;;;;;;4993420;28;20392;-80
2022/08/28 05:18:50;;;;;;;3.05;1.88;;;21.30;84.80;;;;;;4993785;28;20415;-79
2022/08/28 05:21:22;;;;;;;3.50;2.55;;;22.50;83.40;;;;;;4995427;28;20404;-80
2022/08/28 05:23:52;;;;;;;3.33;1.83;;;23.40;76.90;;;;;;4995881;28;20401;-81
2022/08/28 05:26:20;;;;;;;2.03;1.60;;;23.30;75.60;;;;;;4998912;28;20430;-80
2022/08/28 05:28:48;;;;;;;3.47;1.70;;;22.90;76.30;;;;;;4996378;28;20377;-80
2022/08/28 05:31:17;;;;;;;4.25;2.03;;;22.40;77.30;;;;;;4977197;28;20440;-79
2022/08/28 05:33:48;;;;;;;2.40;1.70;;;21.80;78.80;;;;;;4994461;28;20373;-79
2022/08/28 05:36:18;;;;;;;3.22;1.80;;;21.30;81.40;;;;;;4993810;28;20385;-79
2022/08/28 05:38:46;;;;;;;2.92;1.80;;;20.90;83.50;;;;;;4993653;28;20499;-79
2022/08/28 05:41:22;;;;;;;2.13;1.57;;;20.80;85.20;;;;;;4992872;28;20381;-80
2022/08/28 05:43:50;;;;;;;2.60;1.80;;;20.80;86.20;;;;;;4992905;28;20365;-79
2022/08/28 05:46:17;;;;;;;2.13;1.60;;;20.70;86.10;;;;;;4992643;28;20735;-79
2022/08/28 05:48:44;;;;;;;2.53;1.60;;;20.60;87.30;;;;;;4993023;28;20887;-80
2022/08/28 05:51:15;;;;;;;4.57;2.30;;;20.50;88.70;;;;;;4992384;28;20402;-80
2022/08/28 05:53:44;;;;;;;3.65;1.90;;;20.40;90.00;;;;;;4992418;28;20395;-81
2022/08/28 05:56:14;;;;;;;2.60;1.73;;;20.40;90.00;;;;;;4992426;28;20385;-80
2022/08/28 05:58:42;;;;;;;2.93;1.70;;;20.30;90.20;;;;;;4975391;28;20401;-79
2022/08/28 06:01:17;;;;;;;2.63;1.60;;;20.30;90.70;;;;;;4989184;28;20742;-80
2022/08/28 06:03:53;;;;;;;2.53;2.00;;;20.30;90.70;;;;;;4991586;28;20396;-77
2022/08/28 06:06:23;;;;;;;2.65;1.73;;;20.30;90.80;;;;;;4992183;28;20409;-78
2022/08/28 06:08:55;;;;;;;2.90;2.00;;;20.30;90.80;;;;;;4991947;28;20392;-78
2022/08/28 06:11:22;;;;;;;2.70;1.73;;;20.40;91.00;;;;;;4992346;28;20416;-78
2022/08/28 06:13:49;;;;;;;3.45;1.80;;;20.50;91.10;;;;;;4990733;28;20933;-77
2022/08/28 06:16:17;;;;;;;2.90;1.70;;;20.60;91.10;;;;;;4991457;28;20392;-80
2022/08/28 06:18:45;;;;;;;3.25;1.75;;;20.60;91.80;;;;;;4990473;28;20404;-80
2022/08/28 06:21:13;;;;;;;4.03;2.17;;;20.40;92.70;;;;;;4991027;28;20407;-80
2022/08/28 06:23:40;;;;;;;4.22;2.10;;;20.20;93.80;;;;;;4990836;28;20435;-80
2022/08/28 06:26:07;;;;;;;3.40;1.80;;;20.10;94.70;;;;;;4973819;28;20773;-80
2022/08/28 06:28:35;;;;;;;3.05;1.70;;;19.90;95.70;;;;;;4991171;28;20776;-80
2022/08/28 06:31:04;;;;;;;3.90;1.80;;;19.80;96.90;;;;;;4991160;28;20392;-80
2022/08/28 06:33:31;;;;;;;5.88;3.90;;;19.70;98.30;;;;;;4991551;28;20408;-80
2022/08/28 06:35:58;;;;;;;8.07;6.50;;;19.50;99.30;;;;;;4991457;28;20467;-80
2022/08/28 06:38:26;;;;;;;9.32;8.38;;;19.40;99.90;;;;;;4991738;28;20389;-80
2022/08/28 06:40:57;;;;;;;6.07;4.55;;;19.20;99.90;;;;;;4991446;28;20793;-80
2022/08/28 06:43:27;;;;;;;3.70;2.80;;;19.20;99.90;;;;;;4991565;28;20407;-81
2022/08/28 06:45:55;;;;;;;3.53;2.75;;;19.00;99.90;;;;;;4991551;28;20392;-80
2022/08/28 06:48:26;;;;;;;3.35;3.05;;;19.00;99.90;;;;;;4991437;28;20946;-80
2022/08/28 06:50:54;;;;;;;4.10;3.00;;;18.90;99.90;;;;;;4991534;28;20389;-80
2022/08/28 06:53:25;;;;;;;4.82;3.33;;;18.80;99.90;;;;;;4991287;28;20385;-80
2022/08/28 06:55:58;;;;;;;5.70;4.18;;;18.70;99.90;;;;;;4988962;28;20389;-80
2022/08/28 06:58:26;;;;;;;4.32;3.88;;;18.70;99.90;;;;;;4991077;28;20439;-80
2022/08/28 07:01:40;;;;;;;4.80;3.10;;;18.60;99.90;;;;;;4991540;28;20947;-80
2022/08/28 07:04:10;;;;;;;4.05;3.20;;;18.60;99.90;;;;;;4988165;28;20440;-81
2022/08/28 07:06:42;;;;;;;5.10;3.22;;;18.40;99.90;;;;;;4991254;28;20463;-80
2022/08/28 07:09:10;;;;;;;3.90;2.92;;;18.30;99.90;;;;;;4991073;28;20388;-80
2022/08/28 07:11:38;;;;;;;4.47;2.92;;;18.20;99.90;;;;;;4991186;28;20769;-80
2022/08/28 07:14:06;;;;;;;9.82;7.40;;;18.10;99.90;;;;;;4991079;28;20456;-80
2022/08/28 07:16:37;;;;;;;11.27;10.07;;;18.00;99.90;;;;;;4990921;28;20391;-81
2022/08/28 07:19:05;;;;;;;8.55;7.32;;;17.90;99.90;;;;;;4990905;28;20409;-80
2022/08/28 07:21:34;;;;;;;7.45;4.93;;;17.90;99.90;;;;;;4991281;28;20376;-80
2022/08/28 07:24:05;;;;;;;7.70;5.68;;;17.80;99.90;;;;;;4991409;28;20423;-79
2022/08/28 07:26:32;;;;;;;7.68;4.53;;;17.80;99.90;;;;;;4990813;28;20381;-80
2022/08/28 07:29:01;;;;;;;5.82;4.35;;;17.70;99.90;;;;;;4991483;28;20385;-81
2022/08/28 07:31:28;;;;;;;4.82;3.80;;;17.60;99.90;;;;;;4994005;28;20388;-80
2022/08/28 07:33:56;;;;;;;7.80;4.10;;;17.50;99.90;;;;;;4990922;28;20388;-80
2022/08/28 07:36:26;;;;;;;5.93;4.20;;;17.50;99.90;;;;;;4996053;28;20389;-77
2022/08/28 07:38:57;;;;;;;5.35;4.40;;;17.40;99.90;;;;;;5005939;28;20393;-79
2022/08/28 07:41:28;;;;;;;5.95;3.83;;;17.30;99.90;;;;;;5003538;28;20381;-78
2022/08/28 07:46:41;;;;;;;5.35;3.10;;;17.20;99.90;;;;;;5008177;28;20400;-80
2022/08/28 07:49:08;;;;;;;5.72;3.20;;;17.20;99.90;;;;;;4991536;28;20939;-80
2022/08/28 07:51:36;;;;;;;4.68;2.88;;;17.10;99.90;;;;;;4986019;28;20404;-79
2022/08/28 07:54:04;;;;;;;4.15;2.33;;;17.20;99.90;;;;;;4983670;28;20804;-80
2022/08/28 07:56:32;;;;;;;2.50;1.80;;;17.10;99.90;;;;;;4990853;28;20436;-80
2022/08/28 07:59:02;;;;;;;3.17;1.70;;;17.10;99.90;;;;;;4991144;28;20431;-80
2022/08/28 08:01:30;;;;;;;3.92;1.50;;;17.00;99.90;;;;;;4990735;28;20385;-79
2022/08/28 08:03:57;;;;;;;3.72;1.70;;;16.90;99.90;;;;;;4990791;28;20381;-80
2022/08/28 08:06:28;;;;;;;6.20;1.80;;;16.80;99.90;;;;;;4990954;28;20411;-80
2022/08/28 08:08:55;;;;;;;3.17;1.65;;;16.80;99.90;;;;;;4990927;28;20915;-80
2022/08/28 08:11:22;;;;;;;3.90;1.70;;;16.70;99.90;;;;;;4973761;28;20956;-79
2022/08/28 08:13:50;;;;;;;3.65;1.70;;;16.60;99.90;;;;;;4990512;28;20389;-80
2022/08/28 08:16:21;;;;;;;2.78;1.70;;;16.40;99.90;;;;;;4991139;28;20885;-80
2022/08/28 08:18:50;;;;;;;3.28;1.60;;;16.30;99.90;;;;;;4990894;28;20397;-80
2022/08/28 08:21:20;;;;;;;3.80;1.42;;;16.20;99.90;;;;;;4990742;28;20385;-80
2022/08/28 08:23:48;;;;;;;5.30;1.60;;;16.10;99.90;;;;;;4990726;28;20817;-81
2022/08/28 08:26:19;;;;;;;3.63;1.60;;;16.00;99.90;;;;;;4992165;28;20397;-83
2022/08/28 08:28:49;;;;;;;3.20;1.55;;;16.00;99.90;;;;;;4993279;28;20963;-77
2022/08/28 08:31:22;;;;;;;2.95;1.48;;;16.00;99.90;;;;;;4993419;28;20400;-76
2022/08/28 08:33:53;;;;;;;3.33;1.60;;;15.90;99.90;;;;;;4994216;28;20429;-75
2022/08/28 08:36:22;;;;;;;5.30;1.80;;;15.90;99.90;;;;;;4989676;28;20412;-81
2022/08/28 08:38:50;;;;;;;2.85;1.60;;;15.90;99.90;;;;;;4985711;28;20857;-74
2022/08/28 08:41:24;;;;;;;5.13;1.83;;;15.90;99.90;;;;;;4993219;28;20405;-76
2022/08/28 08:44:08;;;;;;;3.50;1.77;;;15.80;99.90;;;;;;4992166;28;20397;-77
2022/08/28 08:46:55;;;;;;;4.65;1.73;;;15.70;99.90;;;;;;4981355;28;20447;-81
2022/08/28 08:49:25;;;;;;;2.57;1.60;;;15.70;99.90;;;;;;4993738;28;20413;-76
2022/08/28 08:52:13;;;;;;;3.10;1.90;;;15.60;99.90;;;;;;4993135;28;20384;-79
2022/08/28 08:54:43;;;;;;;3.28;1.75;;;15.50;99.90;;;;;;4988379;28;20399;-75
2022/08/28 08:57:14;;;;;;;4.13;2.05;;;15.40;99.90;;;;;;4992831;28;20404;-76
2022/08/28 08:59:42;;;;;;;5.03;1.95;;;15.40;99.90;;;;;;4992411;28;20411;-79
2022/08/28 09:02:18;;;;;;;4.45;1.80;;;15.30;99.90;;;;;;4996712;28;20393;-79
2022/08/28 09:04:56;;;;;;;4.18;2.00;;;15.20;99.90;;;;;;5001384;28;20431;-76
2022/08/28 09:07:23;;;;;;;5.07;2.30;;;15.20;99.90;;;;;;4992630;28;20380;-75
2022/08/28 09:09:55;;;;;;;3.88;2.05;;;15.10;99.90;;;;;;4992977;28;20469;-78
2022/08/28 09:12:29;;;;;;;6.07;2.28;;;15.10;99.90;;;;;;4992537;28;20392;-76
2022/08/28 09:15:08;;;;;;;5.22;2.58;;;15.00;99.90;;;;;;4991629;28;20396;-77
2022/08/28 09:17:50;;;;;;;4.22;2.38;;;15.00;99.90;;;;;;4990926;28;20405;-75
2022/08/28 09:20:21;;;;;;;4.63;2.55;;;14.90;99.90;;;;;;4992910;28;20486;-78
2022/08/28 09:22:49;;;;;;;7.53;2.95;;;14.90;99.90;;;;;;4991862;28;20421;-75
2022/08/28 09:25:44;;;;;;;5.90;2.65;;;14.70;99.90;;;;;;4992796;28;20429;-74
2022/08/28 09:28:21;;;;;;;4.37;2.63;;;14.70;99.90;;;;;;4992250;28;20377;-76
2022/08/28 09:31:06;;;;;;;6.55;2.88;;;14.60;99.90;;;;;;4991748;28;20396;-78
2022/08/28 09:33:48;;;;;;;6.78;2.70;;;14.50;99.90;;;;;;4992801;28;20413;-79
2022/08/28 09:36:23;;;;;;;5.85;3.05;;;14.40;99.90;;;;;;4992709;28;20894;-78
2022/08/28 09:39:12;;;;;;;6.50;3.17;;;14.30;99.90;;;;;;4993190;28;20396;-73
2022/08/28 09:45:17;;;;;;;6.53;2.90;;;14.20;99.90;;;;;;4887587;29;20439;-79
2022/08/28 09:47:49;;;;;;;5.70;3.13;;;14.10;99.90;;;;;;4889403;29;20484;-79
2022/08/28 09:50:35;;;;;;;6.18;3.20;;;14.10;99.90;;;;;;4890166;29;20401;-75
2022/08/28 09:53:17;;;;;;;7.03;3.00;;;14.00;99.90;;;;;;4887624;29;20396;-75
2022/08/28 09:56:06;;;;;;;6.57;3.20;;;14.00;99.90;;;;;;4883050;29;20457;-75
2022/08/28 09:58:58;;;;;;;7.47;3.08;;;13.90;99.90;;;;;;4894070;29;20416;-74
2022/08/28 10:01:41;;;;;;;5.75;2.83;;;13.90;99.90;;;;;;4881515;29;20416;-74
2022/08/28 10:04:35;;;;;;;8.13;2.70;;;13.80;99.90;;;;;;4895356;29;20389;-75
2022/08/28 10:07:25;;;;;;;6.82;2.80;;;13.80;99.90;;;;;;4890704;29;20414;-79
2022/08/28 10:10:15;;;;;;;6.57;2.60;;;13.70;99.90;;;;;;4847778;29;20408;-79
2022/08/28 10:12:47;;;;;;;5.78;2.80;;;13.70;99.90;;;;;;4856498;29;20401;-81
2022/08/28 10:15:14;;;;;;;6.10;2.53;;;13.60;99.90;;;;;;4848019;29;20466;-79
2022/08/28 10:17:53;;;;;;;5.85;2.97;;;13.60;99.90;;;;;;4856177;29;20408;-74
2022/08/28 10:20:38;;;;;;;7.78;3.35;;;13.60;99.90;;;;;;4858244;29;20431;-79
2022/08/28 10:23:23;;;;;;;5.97;3.25;;;13.60;99.90;;;;;;4937546;29;20423;-79
2022/08/28 10:25:55;;;;;;;7.17;3.20;;;13.50;99.90;;;;;;4938785;29;20467;-79
2022/08/28 10:28:49;;;;;;;6.18;3.88;;;13.40;99.90;;;;;;4941100;29;20397;-79
2022/08/28 10:31:24;;;;;;;8.90;4.15;;;13.40;99.90;;;;;;4934825;29;20408;-74
2022/08/28 10:34:10;;;;;;;8.63;5.13;;;13.30;99.90;;;;;;4936443;29;20900;-74
2022/08/28 10:36:37;;;;;;;9.88;5.35;;;13.20;99.90;;;;;;4933715;29;20874;-75
2022/08/28 10:39:10;;;;;;;10.02;4.90;;;13.20;99.90;;;;;;4945144;29;20423;-79
2022/08/28 10:41:48;;;;;;;8.60;4.40;;;13.10;99.90;;;;;;4934829;29;20400;-77
2022/08/28 10:44:25;;;;;;;8.80;4.85;;;13.10;99.90;;;;;;4935010;29;20401;-77
2022/08/28 10:46:57;;;;;;;8.05;4.80;;;13.00;99.90;;;;;;4959528;28;20435;-74
2022/08/28 10:49:30;;;;;;;7.45;4.63;;;13.00;99.90;;;;;;4991232;28;20377;-77
2022/08/28 10:52:08;;;;;;;8.13;5.07;;;13.00;99.90;;;;;;4990827;28;20391;-74
2022/08/28 10:54:58;;;;;;;8.70;5.28;;;13.00;99.90;;;;;;4989849;28;20404;-79
2022/08/28 10:57:31;;;;;;;11.07;5.82;;;12.90;99.90;;;;;;4887111;29;20842;-76
2022/08/28 11:00:13;;;;;;;8.65;6.00;;;12.90;99.90;;;;;;4882946;29;20417;-79
2022/08/28 11:02:47;;;;;;;9.02;6.22;;;12.90;99.90;;;;;;4878713;29;20401;-73
2022/08/28 11:05:19;;;;;;;10.43;7.35;;;12.90;99.90;;;;;;4892690;29;20409;-73
2022/08/28 11:07:55;;;;;;;11.65;7.55;;;12.80;99.90;;;;;;4893632;29;20434;-80
2022/08/28 11:10:37;;;;;;;13.85;8.25;;;12.80;99.90;;;;;;4893548;29;20385;-77
2022/08/28 11:13:08;;;;;;;14.32;7.53;;;12.80;99.90;;;;;;4882002;29;20377;-80
2022/08/28 11:15:35;;;;;;;11.90;7.40;;;12.70;99.90;;;;;;4888033;29;20942;-77
2022/08/28 11:18:15;;;;;;;13.02;6.97;;;12.70;99.90;;;;;;4893994;29;20933;-73
2022/08/28 11:21:07;;;;;;;12.88;8.73;;;12.70;99.90;;;;;;4893364;29;20421;-77
2022/08/28 11:23:37;;;;;;;13.95;7.47;;;12.60;99.90;;;;;;4893937;29;20466;-79
2022/08/28 11:26:09;;;;;;;11.35;7.82;;;12.60;99.90;;;;;;4877679;29;20414;-77
2022/08/28 11:28:36;;;;;;;12.77;6.30;;;12.60;99.90;;;;;;4890022;29;20414;-78
2022/08/28 11:31:06;;;;;;;11.38;6.57;;;12.50;99.90;;;;;;4890039;29;20412;-74
2022/08/28 11:33:35;;;;;;;9.13;6.03;;;12.50;99.90;;;;;;4903398;28;20400;-74
2022/08/28 11:36:08;;;;;;;8.65;5.65;;;12.50;99.90;;;;;;4972966;28;20801;-77
2022/08/28 11:39:04;;;;;;;9.50;5.05;;;12.50;99.90;;;;;;4975720;28;20386;-77
2022/08/28 11:41:37;;;;;;;8.63;5.20;;;12.40;99.90;;;;;;4933404;29;20425;-77
2022/08/28 11:44:13;;;;;;;6.65;4.43;;;12.40;99.90;;;;;;4923646;29;20402;-75
2022/08/28 11:46:51;;;;;;;8.93;4.40;;;12.40;99.90;;;;;;4931723;29;20401;-78
2022/08/28 11:49:26;;;;;;;8.05;4.18;;;12.70;99.90;;;;;;4930370;29;20941;-74
2022/08/28 11:52:23;;;;;;;9.90;4.10;;;12.30;99.90;;;;;;4929496;29;20447;-78
2022/08/28 11:55:08;;;;;;;7.75;3.90;;;12.30;99.90;;;;;;4930530;29;20386;-78
2022/08/28 11:57:44;;;;;;;7.55;3.80;;;12.30;99.90;;;;;;4930949;29;20397;-74
2022/08/28 12:00:31;;;;;;;7.88;4.03;;;12.30;99.90;;;;;;4930135;29;20422;-75
2022/08/28 12:03:21;;;;;;;9.70;4.40;;;12.30;99.90;;;;;;4931055;29;20455;-78
2022/08/28 12:05:53;;;;;;;6.13;3.72;;;12.30;99.90;;;;;;4922141;29;20413;-77
2022/08/28 12:08:46;;;;;;;7.25;3.75;;;12.20;99.90;;;;;;4930852;29;20525;-73
2022/08/28 12:11:40;;;;;;;8.13;3.40;;;12.20;99.90;;;;;;4931155;29;20397;-73
2022/08/28 12:14:10;;;;;;;8.68;3.80;;;12.20;99.90;;;;;;4934813;29;20394;-79
2022/08/28 12:16:58;;;;;;;9.90;4.07;;;12.20;99.90;;;;;;4934421;29;20403;-74
2022/08/28 12:19:43;;;;;;;8.75;4.20;;;12.30;99.90;;;;;;4971457;28;20410;-75
2022/08/28 12:22:13;;;;;;;14.10;4.85;;;12.30;99.90;;;;;;4975187;28;20465;-79
2022/08/28 12:25:00;;;;;;;12.25;4.60;;;12.30;99.90;;;;;;4975625;28;20382;-77
2022/08/28 12:27:28;;;;;;;10.07;4.35;;;12.30;99.90;;;;;;4975150;28;20384;-78
2022/08/28 12:29:57;;;;;;;12.00;4.70;;;12.30;99.90;;;;;;4975277;28;20391;-76
2022/08/28 12:32:34;;;;;;;11.32;4.75;;;12.20;99.90;;;;;;4975184;28;20764;-76
2022/08/28 12:35:01;;;;;;;10.40;4.40;;;12.20;99.90;;;;;;4975675;28;20441;-78
2022/08/28 12:37:49;;;;;;;9.88;4.40;;;12.10;99.90;;;;;;4989170;28;20484;-73
2022/08/28 12:40:21;;;;;;;9.52;4.18;;;12.10;99.90;;;;;;4974042;28;20921;-74
2022/08/28 12:43:09;;;;;;;12.88;4.70;;;12.10;99.90;;;;;;4975034;28;20386;-72
2022/08/28 12:45:47;;;;;;;9.65;4.10;;;12.00;99.90;;;;;;4974873;28;20438;-73
2022/08/28 12:48:21;;;;;;;12.23;4.38;;;12.00;99.90;;;;;;4974548;28;20401;-78
2022/08/28 12:51:04;;;;;;;11.88;4.28;;;12.00;99.90;;;;;;4974026;28;20467;-70
2022/08/28 12:53:59;;;;;;;8.27;3.90;;;11.90;99.90;;;;;;4973818;28;20393;-73
2022/08/28 12:56:28;;;;;;;7.93;3.63;;;11.90;99.90;;;;;;4967212;28;20406;-77
2022/08/28 12:59:15;;;;;;;10.40;3.90;;;11.90;99.90;;;;;;4973343;28;20901;-74
2022/08/28 13:01:43;;;;;;;10.63;3.92;;;11.80;99.90;;;;;;4973564;28;20578;-71
2022/08/28 13:04:29;;;;;;;9.35;4.18;;;11.80;99.90;;;;;;4973882;28;20444;-75
2022/08/28 13:07:24;;;;;;;10.95;3.90;;;11.90;99.90;;;;;;4954801;29;20400;-77
2022/08/28 13:09:56;;;;;;;8.57;3.47;;;11.90;99.90;;;;;;4954576;28;20379;-73
2022/08/28 13:12:38;;;;;;;6.97;3.22;;;11.90;99.90;;;;;;4954563;29;20391;-75
2022/08/28 13:15:07;;;;;;;8.25;3.10;;;11.90;99.90;;;;;;4954485;28;20384;-76
2022/08/28 13:17:51;;;;;;;7.35;2.70;;;11.80;99.90;;;;;;4954475;29;20479;-72
2022/08/28 13:20:30;;;;;;;5.70;2.80;;;11.80;99.90;;;;;;4953976;29;20416;-73